sensor_id;sensor_type;location;lat;lon;timestamp;P1;durP1;ratioP1;P2;durP2;ratioP2
13252;SDS011;6693;54.370;10.132;2022-07-17T00:00:14;4.47;;;2.50;;
13252;SDS011;6693;54.370;10.132;2022-07-17T00:02:17;2.60;;;2.30;;
13252;SDS011;6693;54.370;10.132;2022-07-17T00:04:19;5.88;;;2.92;;
13252;SDS011;6693;54.370;10.132;2022-07-17T00:06:21;6.38;;;2.53;;
13252;SDS011;6693;54.370;10.132;2022-07-17T00:08:22;6.70;;;2.80;;
13252;SDS011;6693;54.370;10.132;2022-07-17T00:10:24;4.95;;;2.67;;
13252;SDS011;6693;54.370;10.132;2022-07-17T00:12:26;3.13;;;2.40;;
13252;SDS011;6693;54.370;10.132;2022-07-17T00:14:27;4.93;;;2.78;;
13252;SDS011;6693;54.370;10.132;2022-07-17T00:16:29;3.83;;;2.50;;
13252;SDS011;6693;54.370;10.132;2022-07-17T00:18:32;4.53;;;2.70;;
13252;SDS011;6693;54.370;10.132;2022-07-17T00:20:34;3.63;;;2.30;;
13252;SDS011;6693;54.370;10.132;2022-07-17T00:22:37;4.57;;;3.25;;
13252;SDS011;6693;54.370;10.132;2022-07-17T00:24:38;5.10;;;3.45;;
13252;SDS011;6693;54.370;10.132;2022-07-17T00:26:40;3.65;;;3.08;;
13252;SDS011;6693;54.370;10.132;2022-07-17T00:28:42;3.88;;;3.20;;
13252;SDS011;6693;54.370;10.132;2022-07-17T00:30:43;5.25;;;3.00;;
13252;SDS011;6693;54.370;10.132;2022-07-17T00:32:45;4.20;;;2.65;;
13252;SDS011;6693;54.370;10.132;2022-07-17T00:34:48;3.28;;;2.47;;
13252;SDS011;6693;54.370;10.132;2022-07-17T00:36:50;3.83;;;2.80;;
13252;SDS011;6693;54.370;10.132;2022-07-17T00:38:51;3.85;;;3.05;;
13252;SDS011;6693;54.370;10.132;2022-07-17T00:40:53;7.25;;;2.95;;
13252;SDS011;6693;54.370;10.132;2022-07-17T00:42:55;4.97;;;2.72;;
13252;SDS011;6693;54.370;10.132;2022-07-17T00:44:57;4.25;;;3.10;;
13252;SDS011;6693;54.370;10.132;2022-07-17T00:46:59;5.50;;;2.75;;
13252;SDS011;6693;54.370;10.132;2022-07-17T00:49:01;7.55;;;2.83;;
13252;SDS011;6693;54.370;10.132;2022-07-17T00:51:05;4.55;;;2.80;;
13252;SDS011;6693;54.370;10.132;2022-07-17T00:53:07;6.95;;;3.33;;
13252;SDS011;6693;54.370;10.132;2022-07-17T00:55:11;3.70;;;3.30;;
13252;SDS011;6693;54.370;10.132;2022-07-17T00:57:15;4.57;;;3.22;;
13252;SDS011;6693;54.370;10.132;2022-07-17T00:59:16;8.40;;;3.17;;
13252;SDS011;6693;54.370;10.132;2022-07-17T01:01:20;6.30;;;3.15;;
13252;SDS011;6693;54.370;10.132;2022-07-17T01:03:23;6.35;;;3.10;;
13252;SDS011;6693;54.370;10.132;2022-07-17T01:05:26;6.38;;;5.05;;
13252;SDS011;6693;54.370;10.132;2022-07-17T01:07:29;6.80;;;4.32;;
13252;SDS011;6693;54.370;10.132;2022-07-17T01:09:30;5.28;;;3.67;;
13252;SDS011;6693;54.370;10.132;2022-07-17T01:11:33;8.40;;;4.07;;
13252;SDS011;6693;54.370;10.132;2022-07-17T01:13:35;4.78;;;3.50;;
13252;SDS011;6693;54.370;10.132;2022-07-17T01:15:37;5.70;;;3.60;;
13252;SDS011;6693;54.370;10.132;2022-07-17T01:17:40;4.32;;;3.10;;
13252;SDS011;6693;54.370;10.132;2022-07-17T01:19:42;3.83;;;3.42;;
13252;SDS011;6693;54.370;10.132;2022-07-17T01:21:46;7.75;;;3.42;;
13252;SDS011;6693;54.370;10.132;2022-07-17T01:23:48;5.13;;;2.83;;
13252;SDS011;6693;54.370;10.132;2022-07-17T01:25:50;4.90;;;3.25;;
13252;SDS011;6693;54.370;10.132;2022-07-17T01:27:51;6.03;;;3.20;;
13252;SDS011;6693;54.370;10.132;2022-07-17T01:29:55;3.67;;;3.15;;
13252;SDS011;6693;54.370;10.132;2022-07-17T01:31:57;6.88;;;2.80;;
13252;SDS011;6693;54.370;10.132;2022-07-17T01:33:59;6.15;;;2.97;;
13252;SDS011;6693;54.370;10.132;2022-07-17T01:36:02;4.00;;;2.85;;
13252;SDS011;6693;54.370;10.132;2022-07-17T01:38:05;5.43;;;2.83;;
13252;SDS011;6693;54.370;10.132;2022-07-17T01:40:07;4.95;;;3.03;;
13252;SDS011;6693;54.370;10.132;2022-07-17T01:42:12;5.32;;;3.05;;
13252;SDS011;6693;54.370;10.132;2022-07-17T01:44:14;5.15;;;2.80;;
13252;SDS011;6693;54.370;10.132;2022-07-17T01:46:16;5.32;;;2.97;;
13252;SDS011;6693;54.370;10.132;2022-07-17T01:48:24;4.70;;;2.70;;
13252;SDS011;6693;54.370;10.132;2022-07-17T01:50:26;5.47;;;3.00;;
13252;SDS011;6693;54.370;10.132;2022-07-17T01:52:28;4.00;;;2.83;;
13252;SDS011;6693;54.370;10.132;2022-07-17T01:54:32;5.75;;;3.22;;
13252;SDS011;6693;54.370;10.132;2022-07-17T01:56:34;4.47;;;2.83;;
13252;SDS011;6693;54.370;10.132;2022-07-17T01:58:36;3.97;;;2.90;;
13252;SDS011;6693;54.370;10.132;2022-07-17T02:00:37;4.65;;;2.83;;
13252;SDS011;6693;54.370;10.132;2022-07-17T02:02:39;3.42;;;2.72;;
13252;SDS011;6693;54.370;10.132;2022-07-17T02:04:41;5.35;;;2.80;;
13252;SDS011;6693;54.370;10.132;2022-07-17T02:06:43;5.38;;;2.92;;
13252;SDS011;6693;54.370;10.132;2022-07-17T02:08:44;5.40;;;3.35;;
13252;SDS011;6693;54.370;10.132;2022-07-17T02:10:50;5.10;;;3.38;;
13252;SDS011;6693;54.370;10.132;2022-07-17T02:12:51;4.15;;;3.00;;
13252;SDS011;6693;54.370;10.132;2022-07-17T02:14:53;5.00;;;3.40;;
13252;SDS011;6693;54.370;10.132;2022-07-17T02:16:55;5.63;;;3.60;;
13252;SDS011;6693;54.370;10.132;2022-07-17T02:18:56;5.28;;;2.90;;
13252;SDS011;6693;54.370;10.132;2022-07-17T02:20:58;7.03;;;3.08;;
13252;SDS011;6693;54.370;10.132;2022-07-17T02:23:00;3.97;;;2.80;;
13252;SDS011;6693;54.370;10.132;2022-07-17T02:25:01;5.57;;;3.30;;
13252;SDS011;6693;54.370;10.132;2022-07-17T02:27:05;6.28;;;2.80;;
13252;SDS011;6693;54.370;10.132;2022-07-17T02:29:07;5.30;;;3.15;;
13252;SDS011;6693;54.370;10.132;2022-07-17T02:31:08;6.40;;;3.20;;
13252;SDS011;6693;54.370;10.132;2022-07-17T02:33:10;3.30;;;3.00;;
13252;SDS011;6693;54.370;10.132;2022-07-17T02:35:12;6.35;;;3.40;;
13252;SDS011;6693;54.370;10.132;2022-07-17T02:37:14;6.18;;;3.15;;
13252;SDS011;6693;54.370;10.132;2022-07-17T02:39:16;6.55;;;2.97;;
13252;SDS011;6693;54.370;10.132;2022-07-17T02:41:17;6.45;;;2.70;;
13252;SDS011;6693;54.370;10.132;2022-07-17T02:43:21;5.75;;;3.10;;
13252;SDS011;6693;54.370;10.132;2022-07-17T02:45:22;4.03;;;2.75;;
13252;SDS011;6693;54.370;10.132;2022-07-17T02:47:28;4.10;;;2.83;;
13252;SDS011;6693;54.370;10.132;2022-07-17T02:49:31;7.13;;;2.75;;
13252;SDS011;6693;54.370;10.132;2022-07-17T02:51:33;4.30;;;2.60;;
13252;SDS011;6693;54.370;10.132;2022-07-17T02:53:35;3.25;;;2.45;;
13252;SDS011;6693;54.370;10.132;2022-07-17T02:55:36;4.38;;;2.55;;
13252;SDS011;6693;54.370;10.132;2022-07-17T02:57:38;5.20;;;2.55;;
13252;SDS011;6693;54.370;10.132;2022-07-17T02:59:41;4.85;;;2.65;;
13252;SDS011;6693;54.370;10.132;2022-07-17T03:01:43;4.68;;;2.50;;
13252;SDS011;6693;54.370;10.132;2022-07-17T03:03:45;4.47;;;2.65;;
13252;SDS011;6693;54.370;10.132;2022-07-17T03:05:46;5.15;;;3.20;;
13252;SDS011;6693;54.370;10.132;2022-07-17T03:07:48;6.13;;;2.80;;
13252;SDS011;6693;54.370;10.132;2022-07-17T03:09:50;3.30;;;2.70;;
13252;SDS011;6693;54.370;10.132;2022-07-17T03:11:52;5.35;;;2.97;;
13252;SDS011;6693;54.370;10.132;2022-07-17T03:13:53;4.85;;;2.70;;
13252;SDS011;6693;54.370;10.132;2022-07-17T03:15:56;8.90;;;3.22;;
13252;SDS011;6693;54.370;10.132;2022-07-17T03:17:58;4.53;;;2.80;;
13252;SDS011;6693;54.370;10.132;2022-07-17T03:20:00;4.45;;;2.95;;
13252;SDS011;6693;54.370;10.132;2022-07-17T03:22:02;3.05;;;2.75;;
13252;SDS011;6693;54.370;10.132;2022-07-17T03:24:04;5.50;;;2.92;;
13252;SDS011;6693;54.370;10.132;2022-07-17T03:26:06;5.40;;;3.00;;
13252;SDS011;6693;54.370;10.132;2022-07-17T03:28:07;7.07;;;3.25;;
13252;SDS011;6693;54.370;10.132;2022-07-17T03:30:09;4.05;;;3.30;;
13252;SDS011;6693;54.370;10.132;2022-07-17T03:32:12;3.78;;;3.03;;
13252;SDS011;6693;54.370;10.132;2022-07-17T03:34:14;4.68;;;2.83;;
13252;SDS011;6693;54.370;10.132;2022-07-17T03:36:16;5.78;;;3.17;;
13252;SDS011;6693;54.370;10.132;2022-07-17T03:38:17;3.45;;;2.75;;
13252;SDS011;6693;54.370;10.132;2022-07-17T03:40:19;3.28;;;2.97;;
13252;SDS011;6693;54.370;10.132;2022-07-17T03:42:21;6.25;;;3.28;;
13252;SDS011;6693;54.370;10.132;2022-07-17T03:44:22;5.13;;;3.10;;
13252;SDS011;6693;54.370;10.132;2022-07-17T03:46:24;5.15;;;3.15;;
13252;SDS011;6693;54.370;10.132;2022-07-17T03:48:27;5.63;;;2.78;;
13252;SDS011;6693;54.370;10.132;2022-07-17T03:50:30;4.75;;;3.10;;
13252;SDS011;6693;54.370;10.132;2022-07-17T03:52:31;4.43;;;2.88;;
13252;SDS011;6693;54.370;10.132;2022-07-17T03:54:33;2.78;;;2.42;;
13252;SDS011;6693;54.370;10.132;2022-07-17T03:56:34;4.22;;;3.38;;
13252;SDS011;6693;54.370;10.132;2022-07-17T03:58:36;4.82;;;3.15;;
13252;SDS011;6693;54.370;10.132;2022-07-17T04:00:38;4.57;;;2.90;;
13252;SDS011;6693;54.370;10.132;2022-07-17T04:02:39;4.70;;;2.90;;
13252;SDS011;6693;54.370;10.132;2022-07-17T04:04:42;4.78;;;2.97;;
13252;SDS011;6693;54.370;10.132;2022-07-17T04:06:44;6.63;;;3.13;;
13252;SDS011;6693;54.370;10.132;2022-07-17T04:08:46;3.33;;;2.70;;
13252;SDS011;6693;54.370;10.132;2022-07-17T04:10:47;4.63;;;3.15;;
13252;SDS011;6693;54.370;10.132;2022-07-17T04:12:49;3.80;;;2.85;;
13252;SDS011;6693;54.370;10.132;2022-07-17T04:14:51;6.68;;;3.10;;
13252;SDS011;6693;54.370;10.132;2022-07-17T04:16:52;5.15;;;2.90;;
13252;SDS011;6693;54.370;10.132;2022-07-17T04:18:54;4.75;;;2.60;;
13252;SDS011;6693;54.370;10.132;2022-07-17T04:20:57;3.67;;;2.80;;
13252;SDS011;6693;54.370;10.132;2022-07-17T04:23:00;5.88;;;2.80;;
13252;SDS011;6693;54.370;10.132;2022-07-17T04:25:03;3.80;;;2.72;;
13252;SDS011;6693;54.370;10.132;2022-07-17T04:27:05;3.72;;;3.08;;
13252;SDS011;6693;54.370;10.132;2022-07-17T04:29:06;4.13;;;2.67;;
13252;SDS011;6693;54.370;10.132;2022-07-17T04:31:08;5.78;;;3.05;;
13252;SDS011;6693;54.370;10.132;2022-07-17T04:33:10;2.97;;;2.67;;
13252;SDS011;6693;54.370;10.132;2022-07-17T04:35:12;3.13;;;2.58;;
13252;SDS011;6693;54.370;10.132;2022-07-17T04:37:15;5.55;;;2.70;;
13252;SDS011;6693;54.370;10.132;2022-07-17T04:39:16;6.40;;;3.75;;
13252;SDS011;6693;54.370;10.132;2022-07-17T04:41:18;4.25;;;2.80;;
13252;SDS011;6693;54.370;10.132;2022-07-17T04:43:20;4.32;;;3.00;;
13252;SDS011;6693;54.370;10.132;2022-07-17T04:45:21;3.30;;;3.00;;
13252;SDS011;6693;54.370;10.132;2022-07-17T04:47:23;6.43;;;3.30;;
13252;SDS011;6693;54.370;10.132;2022-07-17T04:49:25;5.25;;;4.00;;
13252;SDS011;6693;54.370;10.132;2022-07-17T04:51:26;6.32;;;3.25;;
13252;SDS011;6693;54.370;10.132;2022-07-17T04:53:29;6.47;;;3.30;;
13252;SDS011;6693;54.370;10.132;2022-07-17T04:55:31;6.45;;;2.88;;
13252;SDS011;6693;54.370;10.132;2022-07-17T04:57:33;4.82;;;2.70;;
13252;SDS011;6693;54.370;10.132;2022-07-17T04:59:35;5.68;;;2.97;;
13252;SDS011;6693;54.370;10.132;2022-07-17T05:01:37;7.30;;;2.72;;
13252;SDS011;6693;54.370;10.132;2022-07-17T05:03:39;5.60;;;3.20;;
13252;SDS011;6693;54.370;10.132;2022-07-17T05:05:40;4.22;;;2.65;;
13252;SDS011;6693;54.370;10.132;2022-07-17T05:07:42;6.50;;;2.70;;
13252;SDS011;6693;54.370;10.132;2022-07-17T05:09:45;4.65;;;2.80;;
13252;SDS011;6693;54.370;10.132;2022-07-17T05:11:46;5.03;;;2.80;;
13252;SDS011;6693;54.370;10.132;2022-07-17T05:13:48;5.03;;;2.85;;
13252;SDS011;6693;54.370;10.132;2022-07-17T05:15:50;7.05;;;3.00;;
13252;SDS011;6693;54.370;10.132;2022-07-17T05:17:51;6.32;;;2.90;;
13252;SDS011;6693;54.370;10.132;2022-07-17T05:19:53;3.50;;;2.60;;
13252;SDS011;6693;54.370;10.132;2022-07-17T05:21:55;6.78;;;3.30;;
13252;SDS011;6693;54.370;10.132;2022-07-17T05:23:57;6.28;;;3.03;;
13252;SDS011;6693;54.370;10.132;2022-07-17T05:26:00;4.90;;;3.03;;
13252;SDS011;6693;54.370;10.132;2022-07-17T05:28:01;5.97;;;2.75;;
13252;SDS011;6693;54.370;10.132;2022-07-17T05:30:04;5.18;;;2.88;;
13252;SDS011;6693;54.370;10.132;2022-07-17T05:32:06;5.40;;;2.80;;
13252;SDS011;6693;54.370;10.132;2022-07-17T05:34:07;3.53;;;2.47;;
13252;SDS011;6693;54.370;10.132;2022-07-17T05:36:09;6.28;;;2.63;;
13252;SDS011;6693;54.370;10.132;2022-07-17T05:38:11;4.47;;;2.63;;
13252;SDS011;6693;54.370;10.132;2022-07-17T05:40:12;3.15;;;2.30;;
13252;SDS011;6693;54.370;10.132;2022-07-17T05:42:16;6.03;;;3.20;;
13252;SDS011;6693;54.370;10.132;2022-07-17T05:44:17;3.67;;;2.33;;
13252;SDS011;6693;54.370;10.132;2022-07-17T05:46:19;7.13;;;2.33;;
13252;SDS011;6693;54.370;10.132;2022-07-17T05:48:21;3.90;;;2.70;;
13252;SDS011;6693;54.370;10.132;2022-07-17T05:50:23;4.63;;;3.33;;
13252;SDS011;6693;54.370;10.132;2022-07-17T05:52:24;3.88;;;3.10;;
13252;SDS011;6693;54.370;10.132;2022-07-17T05:54:26;5.28;;;3.50;;
13252;SDS011;6693;54.370;10.132;2022-07-17T05:56:28;4.05;;;3.22;;
13252;SDS011;6693;54.370;10.132;2022-07-17T05:58:31;3.72;;;2.75;;
13252;SDS011;6693;54.370;10.132;2022-07-17T06:00:33;6.22;;;2.97;;
13252;SDS011;6693;54.370;10.132;2022-07-17T06:02:34;5.18;;;2.63;;
13252;SDS011;6693;54.370;10.132;2022-07-17T06:04:36;4.32;;;2.50;;
13252;SDS011;6693;54.370;10.132;2022-07-17T06:06:38;3.78;;;2.50;;
13252;SDS011;6693;54.370;10.132;2022-07-17T06:08:39;3.00;;;2.67;;
13252;SDS011;6693;54.370;10.132;2022-07-17T06:10:41;4.68;;;2.40;;
13252;SDS011;6693;54.370;10.132;2022-07-17T06:12:43;3.28;;;2.60;;
13252;SDS011;6693;54.370;10.132;2022-07-17T06:14:46;5.78;;;2.80;;
13252;SDS011;6693;54.370;10.132;2022-07-17T06:16:48;3.28;;;2.60;;
13252;SDS011;6693;54.370;10.132;2022-07-17T06:18:49;6.47;;;2.58;;
13252;SDS011;6693;54.370;10.132;2022-07-17T06:20:51;6.40;;;3.00;;
13252;SDS011;6693;54.370;10.132;2022-07-17T06:22:52;5.20;;;2.40;;
13252;SDS011;6693;54.370;10.132;2022-07-17T06:24:54;4.30;;;2.53;;
13252;SDS011;6693;54.370;10.132;2022-07-17T06:26:56;4.88;;;2.40;;
13252;SDS011;6693;54.370;10.132;2022-07-17T06:28:57;2.53;;;2.13;;
13252;SDS011;6693;54.370;10.132;2022-07-17T06:31:00;5.72;;;2.63;;
13252;SDS011;6693;54.370;10.132;2022-07-17T06:33:02;4.38;;;2.72;;
13252;SDS011;6693;54.370;10.132;2022-07-17T06:35:04;5.65;;;2.63;;
13252;SDS011;6693;54.370;10.132;2022-07-17T06:37:07;3.70;;;2.33;;
13252;SDS011;6693;54.370;10.132;2022-07-17T06:39:08;5.78;;;2.47;;
13252;SDS011;6693;54.370;10.132;2022-07-17T06:41:10;3.15;;;2.67;;
13252;SDS011;6693;54.370;10.132;2022-07-17T06:43:12;4.22;;;2.67;;
13252;SDS011;6693;54.370;10.132;2022-07-17T06:45:14;4.80;;;2.58;;
13252;SDS011;6693;54.370;10.132;2022-07-17T06:47:16;3.33;;;2.25;;
13252;SDS011;6693;54.370;10.132;2022-07-17T06:49:18;4.35;;;2.20;;
13252;SDS011;6693;54.370;10.132;2022-07-17T06:51:20;5.28;;;2.22;;
13252;SDS011;6693;54.370;10.132;2022-07-17T06:53:21;5.88;;;2.30;;
13252;SDS011;6693;54.370;10.132;2022-07-17T06:55:23;3.05;;;2.20;;
13252;SDS011;6693;54.370;10.132;2022-07-17T06:57:25;4.53;;;1.90;;
13252;SDS011;6693;54.370;10.132;2022-07-17T06:59:26;3.75;;;2.28;;
13252;SDS011;6693;54.370;10.132;2022-07-17T07:01:28;4.53;;;2.05;;
13252;SDS011;6693;54.370;10.132;2022-07-17T07:03:31;4.28;;;2.35;;
13252;SDS011;6693;54.370;10.132;2022-07-17T07:05:33;3.45;;;2.13;;
13252;SDS011;6693;54.370;10.132;2022-07-17T07:07:35;2.20;;;2.00;;
13252;SDS011;6693;54.370;10.132;2022-07-17T07:09:36;5.63;;;2.42;;
13252;SDS011;6693;54.370;10.132;2022-07-17T07:11:38;4.53;;;2.05;;
13252;SDS011;6693;54.370;10.132;2022-07-17T07:13:40;3.72;;;2.10;;
13252;SDS011;6693;54.370;10.132;2022-07-17T07:15:42;3.33;;;2.30;;
13252;SDS011;6693;54.370;10.132;2022-07-17T07:17:43;7.88;;;2.17;;
13252;SDS011;6693;54.370;10.132;2022-07-17T07:19:46;5.50;;;2.03;;
13252;SDS011;6693;54.370;10.132;2022-07-17T07:21:48;4.65;;;2.35;;
13252;SDS011;6693;54.370;10.132;2022-07-17T07:23:49;7.13;;;2.17;;
13252;SDS011;6693;54.370;10.132;2022-07-17T07:25:51;3.28;;;2.10;;
13252;SDS011;6693;54.370;10.132;2022-07-17T07:27:53;5.90;;;2.33;;
13252;SDS011;6693;54.370;10.132;2022-07-17T07:29:54;5.35;;;2.40;;
13252;SDS011;6693;54.370;10.132;2022-07-17T07:31:56;4.80;;;2.03;;
13252;SDS011;6693;54.370;10.132;2022-07-17T07:33:58;4.78;;;1.85;;
13252;SDS011;6693;54.370;10.132;2022-07-17T07:36:01;4.35;;;2.22;;
13252;SDS011;6693;54.370;10.132;2022-07-17T07:38:02;5.10;;;2.30;;
13252;SDS011;6693;54.370;10.132;2022-07-17T07:40:05;3.08;;;2.00;;
13252;SDS011;6693;54.370;10.132;2022-07-17T07:42:07;3.78;;;1.98;;
13252;SDS011;6693;54.370;10.132;2022-07-17T07:44:09;2.63;;;1.83;;
13252;SDS011;6693;54.370;10.132;2022-07-17T07:46:11;4.72;;;2.33;;
13252;SDS011;6693;54.370;10.132;2022-07-17T07:48:13;4.03;;;2.10;;
13252;SDS011;6693;54.370;10.132;2022-07-17T07:50:15;5.43;;;2.40;;
13252;SDS011;6693;54.370;10.132;2022-07-17T07:52:18;3.15;;;2.50;;
13252;SDS011;6693;54.370;10.132;2022-07-17T07:54:20;2.15;;;1.70;;
13252;SDS011;6693;54.370;10.132;2022-07-17T07:56:21;2.97;;;2.17;;
13252;SDS011;6693;54.370;10.132;2022-07-17T07:58:23;4.68;;;2.00;;
13252;SDS011;6693;54.370;10.132;2022-07-17T08:00:25;3.90;;;1.95;;
13252;SDS011;6693;54.370;10.132;2022-07-17T08:02:26;3.05;;;2.03;;
13252;SDS011;6693;54.370;10.132;2022-07-17T08:04:28;3.28;;;2.03;;
13252;SDS011;6693;54.370;10.132;2022-07-17T08:06:30;3.03;;;1.95;;
13252;SDS011;6693;54.370;10.132;2022-07-17T08:08:33;3.50;;;2.00;;
13252;SDS011;6693;54.370;10.132;2022-07-17T08:10:34;3.88;;;1.83;;
13252;SDS011;6693;54.370;10.132;2022-07-17T08:12:36;4.07;;;2.00;;
13252;SDS011;6693;54.370;10.132;2022-07-17T08:14:38;3.83;;;2.00;;
13252;SDS011;6693;54.370;10.132;2022-07-17T08:16:39;4.57;;;2.05;;
13252;SDS011;6693;54.370;10.132;2022-07-17T08:18:41;3.90;;;1.92;;
13252;SDS011;6693;54.370;10.132;2022-07-17T08:20:43;3.63;;;2.05;;
13252;SDS011;6693;54.370;10.132;2022-07-17T08:22:45;3.42;;;2.00;;
13252;SDS011;6693;54.370;10.132;2022-07-17T08:24:48;1.88;;;1.52;;
13252;SDS011;6693;54.370;10.132;2022-07-17T08:26:50;2.88;;;1.80;;
13252;SDS011;6693;54.370;10.132;2022-07-17T08:28:52;4.13;;;1.80;;
13252;SDS011;6693;54.370;10.132;2022-07-17T08:30:53;3.63;;;1.80;;
13252;SDS011;6693;54.370;10.132;2022-07-17T08:32:55;3.50;;;1.60;;
13252;SDS011;6693;54.370;10.132;2022-07-17T08:34:57;2.38;;;1.70;;
13252;SDS011;6693;54.370;10.132;2022-07-17T08:36:58;3.00;;;1.52;;
13252;SDS011;6693;54.370;10.132;2022-07-17T08:39:00;3.97;;;1.48;;
13252;SDS011;6693;54.370;10.132;2022-07-17T08:41:03;4.70;;;1.85;;
13252;SDS011;6693;54.370;10.132;2022-07-17T08:43:06;4.28;;;1.98;;
13252;SDS011;6693;54.370;10.132;2022-07-17T08:45:08;2.88;;;1.80;;
13252;SDS011;6693;54.370;10.132;2022-07-17T08:47:11;4.35;;;2.00;;
13252;SDS011;6693;54.370;10.132;2022-07-17T08:49:13;1.83;;;1.70;;
13252;SDS011;6693;54.370;10.132;2022-07-17T08:51:20;3.15;;;1.70;;
13252;SDS011;6693;54.370;10.132;2022-07-17T08:53:22;3.72;;;1.77;;
13252;SDS011;6693;54.370;10.132;2022-07-17T08:55:23;3.05;;;1.70;;
13252;SDS011;6693;54.370;10.132;2022-07-17T08:57:26;4.35;;;1.85;;
13252;SDS011;6693;54.370;10.132;2022-07-17T08:59:28;2.33;;;1.63;;
13252;SDS011;6693;54.370;10.132;2022-07-17T09:01:30;5.20;;;2.05;;
13252;SDS011;6693;54.370;10.132;2022-07-17T09:03:31;3.63;;;1.63;;
13252;SDS011;6693;54.370;10.132;2022-07-17T09:05:34;2.47;;;2.00;;
13252;SDS011;6693;54.370;10.132;2022-07-17T09:07:44;2.70;;;1.50;;
13252;SDS011;6693;54.370;10.132;2022-07-17T09:09:49;3.50;;;1.60;;
13252;SDS011;6693;54.370;10.132;2022-07-17T09:11:51;3.35;;;1.75;;
13252;SDS011;6693;54.370;10.132;2022-07-17T09:13:56;2.72;;;1.50;;
13252;SDS011;6693;54.370;10.132;2022-07-17T09:15:58;2.45;;;1.40;;
13252;SDS011;6693;54.370;10.132;2022-07-17T09:18:07;3.45;;;1.80;;
13252;SDS011;6693;54.370;10.132;2022-07-17T09:20:12;2.70;;;1.58;;
13252;SDS011;6693;54.370;10.132;2022-07-17T09:22:16;2.47;;;1.67;;
13252;SDS011;6693;54.370;10.132;2022-07-17T09:24:19;2.67;;;1.50;;
13252;SDS011;6693;54.370;10.132;2022-07-17T09:26:20;2.95;;;1.65;;
13252;SDS011;6693;54.370;10.132;2022-07-17T09:28:23;2.05;;;1.58;;
13252;SDS011;6693;54.370;10.132;2022-07-17T09:30:26;3.03;;;1.95;;
13252;SDS011;6693;54.370;10.132;2022-07-17T09:32:29;3.83;;;1.90;;
13252;SDS011;6693;54.370;10.132;2022-07-17T09:34:33;4.45;;;1.90;;
13252;SDS011;6693;54.370;10.132;2022-07-17T09:36:45;5.10;;;1.90;;
13252;SDS011;6693;54.370;10.132;2022-07-17T09:38:48;2.50;;;1.60;;
13252;SDS011;6693;54.370;10.132;2022-07-17T09:41:05;2.15;;;1.55;;
13252;SDS011;6693;54.370;10.132;2022-07-17T09:43:16;2.17;;;1.60;;
13252;SDS011;6693;54.370;10.132;2022-07-17T09:45:18;3.63;;;1.48;;
13252;SDS011;6693;54.370;10.132;2022-07-17T09:47:23;3.75;;;1.80;;
13252;SDS011;6693;54.370;10.132;2022-07-17T09:49:25;3.63;;;1.65;;
13252;SDS011;6693;54.370;10.132;2022-07-17T09:51:28;1.60;;;1.33;;
13252;SDS011;6693;54.370;10.132;2022-07-17T09:53:32;2.30;;;1.60;;
13252;SDS011;6693;54.370;10.132;2022-07-17T09:55:37;1.95;;;1.50;;
13252;SDS011;6693;54.370;10.132;2022-07-17T09:57:40;2.35;;;1.65;;
13252;SDS011;6693;54.370;10.132;2022-07-17T09:59:43;3.45;;;1.45;;
13252;SDS011;6693;54.370;10.132;2022-07-17T10:01:47;3.72;;;1.75;;
13252;SDS011;6693;54.370;10.132;2022-07-17T10:03:51;3.25;;;1.55;;
13252;SDS011;6693;54.370;10.132;2022-07-17T10:05:53;3.65;;;1.70;;
13252;SDS011;6693;54.370;10.132;2022-07-17T10:07:55;2.83;;;1.60;;
13252;SDS011;6693;54.370;10.132;2022-07-17T10:09:57;3.25;;;1.70;;
13252;SDS011;6693;54.370;10.132;2022-07-17T10:11:59;4.97;;;1.75;;
13252;SDS011;6693;54.370;10.132;2022-07-17T10:14:03;2.95;;;1.70;;
13252;SDS011;6693;54.370;10.132;2022-07-17T10:16:06;2.38;;;1.50;;
13252;SDS011;6693;54.370;10.132;2022-07-17T10:18:09;2.00;;;1.55;;
13252;SDS011;6693;54.370;10.132;2022-07-17T10:20:12;3.20;;;1.63;;
13252;SDS011;6693;54.370;10.132;2022-07-17T10:22:24;3.35;;;1.50;;
13252;SDS011;6693;54.370;10.132;2022-07-17T10:24:26;2.05;;;1.65;;
13252;SDS011;6693;54.370;10.132;2022-07-17T10:26:30;2.28;;;1.48;;
13252;SDS011;6693;54.370;10.132;2022-07-17T10:28:42;2.50;;;1.38;;
13252;SDS011;6693;54.370;10.132;2022-07-17T10:30:45;1.63;;;1.20;;
13252;SDS011;6693;54.370;10.132;2022-07-17T10:32:50;1.95;;;1.17;;
13252;SDS011;6693;54.370;10.132;2022-07-17T10:34:53;1.77;;;1.50;;
13252;SDS011;6693;54.370;10.132;2022-07-17T10:37:00;3.75;;;1.40;;
13252;SDS011;6693;54.370;10.132;2022-07-17T10:39:14;3.10;;;1.38;;
13252;SDS011;6693;54.370;10.132;2022-07-17T10:41:19;4.57;;;1.70;;
13252;SDS011;6693;54.370;10.132;2022-07-17T10:43:21;2.63;;;1.55;;
13252;SDS011;6693;54.370;10.132;2022-07-17T10:45:23;3.92;;;1.70;;
13252;SDS011;6693;54.370;10.132;2022-07-17T10:47:27;3.95;;;1.60;;
13252;SDS011;6693;54.370;10.132;2022-07-17T10:49:29;2.28;;;1.45;;
13252;SDS011;6693;54.370;10.132;2022-07-17T10:51:30;3.03;;;1.63;;
13252;SDS011;6693;54.370;10.132;2022-07-17T10:53:35;3.80;;;1.63;;
13252;SDS011;6693;54.370;10.132;2022-07-17T10:55:37;2.50;;;1.85;;
13252;SDS011;6693;54.370;10.132;2022-07-17T10:57:40;2.25;;;1.58;;
13252;SDS011;6693;54.370;10.132;2022-07-17T10:59:43;2.00;;;1.80;;
13252;SDS011;6693;54.370;10.132;2022-07-17T11:01:45;3.58;;;1.33;;
13252;SDS011;6693;54.370;10.132;2022-07-17T11:03:48;1.80;;;1.40;;
13252;SDS011;6693;54.370;10.132;2022-07-17T11:05:51;1.90;;;1.30;;
13252;SDS011;6693;54.370;10.132;2022-07-17T11:07:54;2.25;;;1.33;;
13252;SDS011;6693;54.370;10.132;2022-07-17T11:09:58;3.25;;;1.30;;
13252;SDS011;6693;54.370;10.132;2022-07-17T11:12:00;2.78;;;1.35;;
13252;SDS011;6693;54.370;10.132;2022-07-17T11:14:08;2.60;;;1.60;;
13252;SDS011;6693;54.370;10.132;2022-07-17T11:16:12;3.30;;;1.38;;
13252;SDS011;6693;54.370;10.132;2022-07-17T11:18:23;2.40;;;1.52;;
13252;SDS011;6693;54.370;10.132;2022-07-17T11:20:25;2.35;;;1.50;;
13252;SDS011;6693;54.370;10.132;2022-07-17T11:22:27;2.22;;;1.50;;
13252;SDS011;6693;54.370;10.132;2022-07-17T11:24:34;1.50;;;1.33;;
13252;SDS011;6693;54.370;10.132;2022-07-17T11:26:38;1.73;;;1.40;;
13252;SDS011;6693;54.370;10.132;2022-07-17T11:28:40;1.50;;;1.40;;
13252;SDS011;6693;54.370;10.132;2022-07-17T11:30:44;2.22;;;1.30;;
13252;SDS011;6693;54.370;10.132;2022-07-17T11:32:46;2.25;;;1.63;;
13252;SDS011;6693;54.370;10.132;2022-07-17T11:34:47;1.85;;;1.70;;
13252;SDS011;6693;54.370;10.132;2022-07-17T11:36:49;2.35;;;1.67;;
13252;SDS011;6693;54.370;10.132;2022-07-17T11:38:51;1.95;;;1.60;;
13252;SDS011;6693;54.370;10.132;2022-07-17T11:40:53;2.90;;;1.38;;
13252;SDS011;6693;54.370;10.132;2022-07-17T11:43:00;2.08;;;1.45;;
13252;SDS011;6693;54.370;10.132;2022-07-17T11:45:05;2.85;;;1.42;;
13252;SDS011;6693;54.370;10.132;2022-07-17T11:47:07;1.50;;;1.40;;
13252;SDS011;6693;54.370;10.132;2022-07-17T11:49:10;3.75;;;1.60;;
13252;SDS011;6693;54.370;10.132;2022-07-17T11:51:12;1.77;;;1.58;;
13252;SDS011;6693;54.370;10.132;2022-07-17T11:53:14;1.60;;;1.50;;
13252;SDS011;6693;54.370;10.132;2022-07-17T11:55:16;2.35;;;1.42;;
13252;SDS011;6693;54.370;10.132;2022-07-17T11:57:18;1.88;;;1.33;;
13252;SDS011;6693;54.370;10.132;2022-07-17T11:59:25;1.65;;;1.55;;
13252;SDS011;6693;54.370;10.132;2022-07-17T12:01:29;2.15;;;1.60;;
13252;SDS011;6693;54.370;10.132;2022-07-17T12:03:38;2.47;;;1.70;;
13252;SDS011;6693;54.370;10.132;2022-07-17T12:05:41;1.70;;;1.60;;
13252;SDS011;6693;54.370;10.132;2022-07-17T12:07:43;2.30;;;2.10;;
13252;SDS011;6693;54.370;10.132;2022-07-17T12:09:45;2.13;;;1.92;;
13252;SDS011;6693;54.370;10.132;2022-07-17T12:11:48;2.22;;;1.60;;
13252;SDS011;6693;54.370;10.132;2022-07-17T12:13:50;2.03;;;1.50;;
13252;SDS011;6693;54.370;10.132;2022-07-17T12:15:53;1.90;;;1.65;;
13252;SDS011;6693;54.370;10.132;2022-07-17T12:17:56;3.22;;;1.70;;